sensor_id;sensor_type;location;lat;lon;timestamp;pressure;altitude;pressure_sealevel;temperature;humidity
13478;BME280;12598;62.382;17.344;2023-09-07T00:00:23;102446.06;;;26.68;31.04
13478;BME280;12598;62.382;17.344;2023-09-07T00:01:25;102442.53;;;26.68;30.59
13478;BME280;12598;62.382;17.344;2023-09-07T00:02:27;102444.38;;;26.67;30.55
13478;BME280;12598;62.382;17.344;2023-09-07T00:03:40;102437.44;;;26.65;30.26
13478;BME280;12598;62.382;17.344;2023-09-07T00:04:43;102452.19;;;26.70;30.19
13478;BME280;12598;62.382;17.344;2023-09-07T00:05:45;102455.09;;;26.69;30.39
13478;BME280;12598;62.382;17.344;2023-09-07T00:06:47;102453.38;;;26.68;30.85
13478;BME280;12598;62.382;17.344;2023-09-07T00:07:49;102456.09;;;26.68;30.77
13478;BME280;12598;62.382;17.344;2023-09-07T00:08:51;102449.81;;;26.67;30.77
13478;BME280;12598;62.382;17.344;2023-09-07T00:09:53;102446.25;;;26.67;30.59
13478;BME280;12598;62.382;17.344;2023-09-07T00:10:54;102445.41;;;26.66;30.40
13478;BME280;12598;62.382;17.344;2023-09-07T00:11:56;102443.69;;;26.65;30.56
13478;BME280;12598;62.382;17.344;2023-09-07T00:12:58;102439.47;;;26.63;30.68
13478;BME280;12598;62.382;17.344;2023-09-07T00:14:00;102444.72;;;26.64;30.77
13478;BME280;12598;62.382;17.344;2023-09-07T00:15:01;102445.72;;;26.63;30.75
13478;BME280;12598;62.382;17.344;2023-09-07T00:16:05;102446.72;;;26.62;30.81
13478;BME280;12598;62.382;17.344;2023-09-07T00:17:07;102444.03;;;26.62;30.64
13478;BME280;12598;62.382;17.344;2023-09-07T00:18:09;102443.00;;;26.63;30.40
13478;BME280;12598;62.382;17.344;2023-09-07T00:19:11;102441.16;;;26.64;30.38
13478;BME280;12598;62.382;17.344;2023-09-07T00:20:13;102436.06;;;26.61;30.31
13478;BME280;12598;62.382;17.344;2023-09-07T00:21:17;102442.00;;;26.64;30.27
13478;BME280;12598;62.382;17.344;2023-09-07T00:22:19;102443.00;;;26.63;30.74
13478;BME280;12598;62.382;17.344;2023-09-07T00:23:21;102444.72;;;26.64;30.92
13478;BME280;12598;62.382;17.344;2023-09-07T00:24:23;102437.06;;;26.60;30.80
13478;BME280;12598;62.382;17.344;2023-09-07T00:25:25;102439.59;;;26.61;30.41
13478;BME280;12598;62.382;17.344;2023-09-07T00:26:27;102450.31;;;26.63;30.57
13478;BME280;12598;62.382;17.344;2023-09-07T00:27:29;102440.63;;;26.60;30.24
13478;BME280;12598;62.382;17.344;2023-09-07T00:28:31;102440.63;;;26.60;30.64
13478;BME280;12598;62.382;17.344;2023-09-07T00:29:35;102439.25;;;26.56;30.94
13478;BME280;12598;62.382;17.344;2023-09-07T00:30:37;102438.91;;;26.59;30.67
13478;BME280;12598;62.382;17.344;2023-09-07T00:31:38;102430.78;;;26.59;30.55
13478;BME280;12598;62.382;17.344;2023-09-07T00:32:42;102426.16;;;26.52;30.75
13478;BME280;12598;62.382;17.344;2023-09-07T00:33:44;102432.66;;;26.59;30.28
13478;BME280;12598;62.382;17.344;2023-09-07T00:34:46;102429.22;;;26.57;30.45
13478;BME280;12598;62.382;17.344;2023-09-07T00:35:48;102429.94;;;26.59;30.50
13478;BME280;12598;62.382;17.344;2023-09-07T00:36:50;102426.38;;;26.58;30.27
13478;BME280;12598;62.382;17.344;2023-09-07T00:37:51;102430.78;;;26.59;30.73
13478;BME280;12598;62.382;17.344;2023-09-07T00:38:53;102419.25;;;26.57;31.13
13478;BME280;12598;62.382;17.344;2023-09-07T00:39:55;102425.34;;;26.59;30.85
13478;BME280;12598;62.382;17.344;2023-09-07T00:40:57;102414.81;;;26.56;30.69
13478;BME280;12598;62.382;17.344;2023-09-07T00:41:59;102413.13;;;26.55;30.73
13478;BME280;12598;62.382;17.344;2023-09-07T00:43:00;102422.63;;;26.59;30.70
13478;BME280;12598;62.382;17.344;2023-09-07T00:44:02;102415.50;;;26.58;30.42
13478;BME280;12598;62.382;17.344;2023-09-07T00:45:05;102410.75;;;26.52;30.90
13478;BME280;12598;62.382;17.344;2023-09-07T00:46:07;102410.41;;;26.55;30.86
13478;BME280;12598;62.382;17.344;2023-09-07T00:47:09;102405.31;;;26.52;30.91
13478;BME280;12598;62.382;17.344;2023-09-07T00:48:12;102400.03;;;26.51;30.78
13478;BME280;12598;62.382;17.344;2023-09-07T00:49:15;102406.69;;;26.56;30.56
13478;BME280;12598;62.382;17.344;2023-09-07T00:50:16;102405.81;;;26.56;30.25
13478;BME280;12598;62.382;17.344;2023-09-07T00:51:18;102413.81;;;26.57;30.42
13478;BME280;12598;62.382;17.344;2023-09-07T00:52:20;102406.69;;;26.56;30.49
13478;BME280;12598;62.382;17.344;2023-09-07T00:53:22;102411.94;;;26.58;31.37
13478;BME280;12598;62.382;17.344;2023-09-07T00:54:26;102408.72;;;26.54;30.96
13478;BME280;12598;62.382;17.344;2023-09-07T00:55:28;102407.00;;;26.53;30.71
13478;BME280;12598;62.382;17.344;2023-09-07T00:56:35;102404.31;;;26.53;30.45
13478;BME280;12598;62.382;17.344;2023-09-07T00:57:37;102419.09;;;26.59;30.29
13478;BME280;12598;62.382;17.344;2023-09-07T00:58:42;102409.72;;;26.53;30.95
13478;BME280;12598;62.382;17.344;2023-09-07T00:59:44;102421.94;;;26.57;30.82
13478;BME280;12598;62.382;17.344;2023-09-07T01:00:46;102417.53;;;26.56;30.98
13478;BME280;12598;62.382;17.344;2023-09-07T01:01:49;102418.56;;;26.55;30.96
13478;BME280;12598;62.382;17.344;2023-09-07T01:02:53;102414.81;;;26.56;30.99
13478;BME280;12598;62.382;17.344;2023-09-07T01:03:56;102414.13;;;26.54;30.72
13478;BME280;12598;62.382;17.344;2023-09-07T01:05:01;102417.88;;;26.53;30.32
13478;BME280;12598;62.382;17.344;2023-09-07T01:07:51;102419.47;;;26.72;29.72
13478;BME280;12598;62.382;17.344;2023-09-07T01:08:57;102426.06;;;26.69;30.79
13478;BME280;12598;62.382;17.344;2023-09-07T01:10:01;102420.97;;;26.66;30.83
13478;BME280;12598;62.382;17.344;2023-09-07T01:11:17;102426.41;;;26.66;30.54
13478;BME280;12598;62.382;17.344;2023-09-07T01:12:23;102415.38;;;26.60;30.35
13478;BME280;12598;62.382;17.344;2023-09-07T01:13:25;102421.47;;;26.62;30.57
13478;BME280;12598;62.382;17.344;2023-09-07T01:14:27;102421.81;;;26.59;30.66
13478;BME280;12598;62.382;17.344;2023-09-07T01:15:29;102422.09;;;26.56;30.88
13478;BME280;12598;62.382;17.344;2023-09-07T01:16:32;102411.56;;;26.53;31.16
13478;BME280;12598;62.382;17.344;2023-09-07T01:17:40;102413.47;;;26.52;30.75
13478;BME280;12598;62.382;17.344;2023-09-07T01:18:43;102422.28;;;26.54;30.67
13478;BME280;12598;62.382;17.344;2023-09-07T01:19:46;102413.28;;;26.54;30.51
13478;BME280;12598;62.382;17.344;2023-09-07T01:20:52;102408.84;;;26.53;30.22
13478;BME280;12598;62.382;17.344;2023-09-07T01:21:54;102405.47;;;26.51;30.50
13478;BME280;12598;62.382;17.344;2023-09-07T01:22:56;102404.44;;;26.52;30.97
13478;BME280;12598;62.382;17.344;2023-09-07T01:23:59;102417.00;;;26.53;31.00
13478;BME280;12598;62.382;17.344;2023-09-07T01:25:02;102412.44;;;26.53;31.26
13478;BME280;12598;62.382;17.344;2023-09-07T01:26:07;102414.13;;;26.54;30.77
13478;BME280;12598;62.382;17.344;2023-09-07T01:27:10;102418.69;;;26.54;30.62
13478;BME280;12598;62.382;17.344;2023-09-07T01:28:12;102417.00;;;26.53;30.94
13478;BME280;12598;62.382;17.344;2023-09-07T01:29:16;102415.16;;;26.53;30.90
13478;BME280;12598;62.382;17.344;2023-09-07T01:30:19;102410.75;;;26.52;30.51
13478;BME280;12598;62.382;17.344;2023-09-07T01:31:21;102412.75;;;26.50;30.75
13478;BME280;12598;62.382;17.344;2023-09-07T01:32:22;102416.16;;;26.52;30.81
13478;BME280;12598;62.382;17.344;2023-09-07T01:33:24;102423.63;;;26.50;30.76
13478;BME280;12598;62.382;17.344;2023-09-07T01:34:27;102411.06;;;26.49;30.94
13478;BME280;12598;62.382;17.344;2023-09-07T01:35:30;102414.63;;;26.50;30.54
13478;BME280;12598;62.382;17.344;2023-09-07T01:36:33;102415.47;;;26.50;29.88
13478;BME280;12598;62.382;17.344;2023-09-07T01:37:35;102409.88;;;26.52;30.97
13478;BME280;12598;62.382;17.344;2023-09-07T01:38:38;102416.16;;;26.52;30.79
13478;BME280;12598;62.382;17.344;2023-09-07T01:39:40;102405.66;;;26.49;31.01
13478;BME280;12598;62.382;17.344;2023-09-07T01:40:42;102405.47;;;26.51;30.82
13478;BME280;12598;62.382;17.344;2023-09-07T01:41:45;102408.19;;;26.51;30.49
13478;BME280;12598;62.382;17.344;2023-09-07T01:42:47;102409.19;;;26.50;30.66
13478;BME280;12598;62.382;17.344;2023-09-07T01:43:49;102416.50;;;26.49;30.69
13478;BME280;12598;62.382;17.344;2023-09-07T01:44:51;102413.94;;;26.48;30.74
13478;BME280;12598;62.382;17.344;2023-09-07T01:45:53;102410.69;;;26.44;31.03
13478;BME280;12598;62.382;17.344;2023-09-07T01:46:55;102413.09;;;26.47;30.97
13478;BME280;12598;62.382;17.344;2023-09-07T01:47:59;102401.84;;;26.42;30.50
13478;BME280;12598;62.382;17.344;2023-09-07T01:49:01;102418.53;;;26.47;31.01
13478;BME280;12598;62.382;17.344;2023-09-07T01:50:04;102413.09;;;26.47;30.70
13478;BME280;12598;62.382;17.344;2023-09-07T01:51:06;102425.66;;;26.48;30.32
13478;BME280;12598;62.382;17.344;2023-09-07T01:52:08;102418.34;;;26.49;30.32
13478;BME280;12598;62.382;17.344;2023-09-07T01:53:10;102422.94;;;26.48;30.16
13478;BME280;12598;62.382;17.344;2023-09-07T01:54:12;102407.66;;;26.47;30.73
13478;BME280;12598;62.382;17.344;2023-09-07T01:55:14;102415.09;;;26.45;31.31
13478;BME280;12598;62.382;17.344;2023-09-07T01:56:16;102418.53;;;26.47;31.02
13478;BME280;12598;62.382;17.344;2023-09-07T01:57:18;102415.63;;;26.49;30.74
13478;BME280;12598;62.382;17.344;2023-09-07T01:58:20;102429.06;;;26.50;30.65
13478;BME280;12598;62.382;17.344;2023-09-07T01:59:22;102422.94;;;26.48;30.97
13478;BME280;12598;62.382;17.344;2023-09-07T02:00:24;102419.66;;;26.45;31.06
13478;BME280;12598;62.382;17.344;2023-09-07T02:01:28;102416.81;;;26.46;31.11
13478;BME280;12598;62.382;17.344;2023-09-07T02:02:33;102417.50;;;26.48;31.01
13478;BME280;12598;62.382;17.344;2023-09-07T02:03:34;102406.81;;;26.47;30.95
13478;BME280;12598;62.382;17.344;2023-09-07T02:04:37;102406.81;;;26.47;30.56
13478;BME280;12598;62.382;17.344;2023-09-07T02:05:39;102398.66;;;26.47;30.69
13478;BME280;12598;62.382;17.344;2023-09-07T02:06:41;102393.38;;;26.45;30.26
13478;BME280;12598;62.382;17.344;2023-09-07T02:07:43;102401.53;;;26.45;30.38
13478;BME280;12598;62.382;17.344;2023-09-07T02:08:45;102400.53;;;26.46;30.25
13478;BME280;12598;62.382;17.344;2023-09-07T02:09:47;102403.06;;;26.48;30.30
13478;BME280;12598;62.382;17.344;2023-09-07T02:10:49;102394.72;;;26.41;30.68
13478;BME280;12598;62.382;17.344;2023-09-07T02:11:51;102410.19;;;26.49;31.07
13478;BME280;12598;62.382;17.344;2023-09-07T02:12:53;102405.66;;;26.49;30.90
13478;BME280;12598;62.382;17.344;2023-09-07T02:13:54;102408.34;;;26.49;30.61
13478;BME280;12598;62.382;17.344;2023-09-07T02:14:56;102394.22;;;26.46;30.83
13478;BME280;12598;62.382;17.344;2023-09-07T02:15:58;102372.63;;;26.36;30.55
13478;BME280;12598;62.382;17.344;2023-09-07T02:17:00;102389.34;;;26.49;30.73
13478;BME280;12598;62.382;17.344;2023-09-07T02:18:02;102387.66;;;26.48;30.87
13478;BME280;12598;62.382;17.344;2023-09-07T02:19:06;102386.78;;;26.48;31.13
13478;BME280;12598;62.382;17.344;2023-09-07T02:20:11;102392.22;;;26.48;30.72
13478;BME280;12598;62.382;17.344;2023-09-07T02:21:13;102379.53;;;26.48;30.67
13478;BME280;12598;62.382;17.344;2023-09-07T02:22:15;102383.25;;;26.47;30.66
13478;BME280;12598;62.382;17.344;2023-09-07T02:23:17;102382.25;;;26.48;30.41
13478;BME280;12598;62.382;17.344;2023-09-07T02:24:19;102374.09;;;26.48;30.29
13478;BME280;12598;62.382;17.344;2023-09-07T02:25:21;102388.69;;;26.47;30.48
13478;BME280;12598;62.382;17.344;2023-09-07T02:26:23;102389.34;;;26.49;30.48
13478;BME280;12598;62.382;17.344;2023-09-07T02:27:25;102400.22;;;26.49;31.15
13478;BME280;12598;62.382;17.344;2023-09-07T02:28:26;102387.97;;;26.45;30.70
13478;BME280;12598;62.382;17.344;2023-09-07T02:29:29;102393.25;;;26.47;30.63
13478;BME280;12598;62.382;17.344;2023-09-07T02:30:31;102382.53;;;26.45;30.78
13478;BME280;12598;62.382;17.344;2023-09-07T02:31:33;102393.38;;;26.45;30.78
13478;BME280;12598;62.382;17.344;2023-09-07T02:32:35;102385.41;;;26.44;30.85
13478;BME280;12598;62.382;17.344;2023-09-07T02:33:37;102376.06;;;26.38;30.85
13478;BME280;12598;62.382;17.344;2023-09-07T02:34:39;102381.16;;;26.41;30.88
13478;BME280;12598;62.382;17.344;2023-09-07T02:35:41;102382.19;;;26.40;30.56
13478;BME280;12598;62.382;17.344;2023-09-07T02:36:43;102391.00;;;26.42;30.56
13478;BME280;12598;62.382;17.344;2023-09-07T02:37:45;102378.91;;;26.37;30.63
13478;BME280;12598;62.382;17.344;2023-09-07T02:38:47;102385.72;;;26.41;30.40
13478;BME280;12598;62.382;17.344;2023-09-07T02:39:49;102380.28;;;26.41;30.34
13478;BME280;12598;62.382;17.344;2023-09-07T02:40:51;102374.03;;;26.40;30.59
13478;BME280;12598;62.382;17.344;2023-09-07T02:41:53;102364.19;;;26.39;31.18
13478;BME280;12598;62.382;17.344;2023-09-07T02:42:55;102358.09;;;26.37;30.88
13478;BME280;12598;62.382;17.344;2023-09-07T02:43:57;102366.41;;;26.44;30.71
13478;BME280;12598;62.382;17.344;2023-09-07T02:44:59;102373.72;;;26.43;31.06
13478;BME280;12598;62.382;17.344;2023-09-07T02:46:01;102365.72;;;26.42;30.95
13478;BME280;12598;62.382;17.344;2023-09-07T02:47:03;102375.72;;;26.41;30.97
13478;BME280;12598;62.382;17.344;2023-09-07T02:48:05;102372.16;;;26.41;30.95
13478;BME280;12598;62.382;17.344;2023-09-07T02:49:08;102367.22;;;26.36;31.36
13478;BME280;12598;62.382;17.344;2023-09-07T02:50:11;102371.31;;;26.40;31.04
13478;BME280;12598;62.382;17.344;2023-09-07T02:51:13;102359.59;;;26.32;30.90
13478;BME280;12598;62.382;17.344;2023-09-07T02:52:15;102367.22;;;26.36;30.73
13478;BME280;12598;62.382;17.344;2023-09-07T02:53:17;102374.88;;;26.41;30.44
13478;BME280;12598;62.382;17.344;2023-09-07T02:54:19;102378.44;;;26.41;30.25
13478;BME280;12598;62.382;17.344;2023-09-07T02:55:21;102376.06;;;26.38;30.53
13478;BME280;12598;62.382;17.344;2023-09-07T02:56:23;102379.47;;;26.40;30.98
13478;BME280;12598;62.382;17.344;2023-09-07T02:57:24;102374.72;;;26.42;31.21
13478;BME280;12598;62.382;17.344;2023-09-07T02:58:26;102361.78;;;26.36;30.92
13478;BME280;12598;62.382;17.344;2023-09-07T02:59:29;102368.28;;;26.43;30.98
13478;BME280;12598;62.382;17.344;2023-09-07T03:00:31;102376.56;;;26.42;30.85
13478;BME280;12598;62.382;17.344;2023-09-07T03:01:34;102387.28;;;26.43;30.93
13478;BME280;12598;62.382;17.344;2023-09-07T03:02:36;102387.28;;;26.43;30.88
13478;BME280;12598;62.382;17.344;2023-09-07T03:03:38;102381.16;;;26.41;31.17
13478;BME280;12598;62.382;17.344;2023-09-07T03:04:43;102372.34;;;26.39;30.86
13478;BME280;12598;62.382;17.344;2023-09-07T03:05:45;102368.94;;;26.37;30.77
13478;BME280;12598;62.382;17.344;2023-09-07T03:06:48;102362.97;;;26.34;30.48
13478;BME280;12598;62.382;17.344;2023-09-07T03:07:50;102382.00;;;26.42;30.71
13478;BME280;12598;62.382;17.344;2023-09-07T03:08:53;102385.56;;;26.42;30.67
13478;BME280;12598;62.382;17.344;2023-09-07T03:09:55;102382.00;;;26.42;30.53
13478;BME280;12598;62.382;17.344;2023-09-07T03:10:58;102378.78;;;26.38;30.22
13478;BME280;12598;62.382;17.344;2023-09-07T03:12:00;102382.88;;;26.42;30.57
13478;BME280;12598;62.382;17.344;2023-09-07T03:13:03;102379.97;;;26.44;31.17
13478;BME280;12598;62.382;17.344;2023-09-07T03:14:05;102376.25;;;26.45;30.70
13478;BME280;12598;62.382;17.344;2023-09-07T03:15:07;102376.41;;;26.43;30.77
13478;BME280;12598;62.382;17.344;2023-09-07T03:16:09;102380.84;;;26.44;30.71
13478;BME280;12598;62.382;17.344;2023-09-07T03:17:12;102381.84;;;26.43;30.80
13478;BME280;12598;62.382;17.344;2023-09-07T03:18:14;102377.44;;;26.42;30.88
13478;BME280;12598;62.382;17.344;2023-09-07T03:19:16;102373.03;;;26.41;30.87
13478;BME280;12598;62.382;17.344;2023-09-07T03:20:18;102365.22;;;26.38;30.75
13478;BME280;12598;62.382;17.344;2023-09-07T03:21:24;102361.16;;;26.42;30.74
13478;BME280;12598;62.382;17.344;2023-09-07T03:22:31;102362.84;;;26.43;30.81
13478;BME280;12598;62.382;17.344;2023-09-07T03:23:33;102349.78;;;26.39;30.93
13478;BME280;12598;62.382;17.344;2023-09-07T03:24:36;102362.84;;;26.43;30.58
13478;BME280;12598;62.382;17.344;2023-09-07T03:25:38;102364.88;;;26.41;30.78
13478;BME280;12598;62.382;17.344;2023-09-07T03:26:41;102356.75;;;26.41;31.20
13478;BME280;12598;62.382;17.344;2023-09-07T03:27:43;102354.34;;;26.38;31.03
13478;BME280;12598;62.382;17.344;2023-09-07T03:28:46;102360.13;;;26.43;31.15
13478;BME280;12598;62.382;17.344;2023-09-07T03:29:50;102367.59;;;26.41;30.74
13478;BME280;12598;62.382;17.344;2023-09-07T03:30:54;102362.84;;;26.43;30.68
13478;BME280;12598;62.382;17.344;2023-09-07T03:31:57;102367.59;;;26.41;30.85
13478;BME280;12598;62.382;17.344;2023-09-07T03:32:59;102368.63;;;26.40;31.05
13478;BME280;12598;62.382;17.344;2023-09-07T03:34:01;102365.50;;;26.35;30.93
13478;BME280;12598;62.382;17.344;2023-09-07T03:35:03;102370.63;;;26.38;30.82
13478;BME280;12598;62.382;17.344;2023-09-07T03:36:11;102365.91;;;26.40;30.89
13478;BME280;12598;62.382;17.344;2023-09-07T03:37:16;102364.19;;;26.39;30.53
13478;BME280;12598;62.382;17.344;2023-09-07T03:38:17;102360.63;;;26.39;30.38
13478;BME280;12598;62.382;17.344;2023-09-07T03:39:20;102343.13;;;26.33;30.33
13478;BME280;12598;62.382;17.344;2023-09-07T03:40:25;102351.47;;;26.40;30.15
13478;BME280;12598;62.382;17.344;2023-09-07T03:41:27;102339.41;;;26.34;30.97
13478;BME280;12598;62.382;17.344;2023-09-07T03:42:35;102341.09;;;26.35;30.88
13478;BME280;12598;62.382;17.344;2023-09-07T03:43:37;102347.91;;;26.39;30.63
13478;BME280;12598;62.382;17.344;2023-09-07T03:44:39;102348.94;;;26.38;30.58
13478;BME280;12598;62.382;17.344;2023-09-07T03:45:41;102351.94;;;26.35;30.70
13478;BME280;12598;62.382;17.344;2023-09-07T03:46:43;102346.69;;;26.34;30.93
13478;BME280;12598;62.382;17.344;2023-09-07T03:47:45;102343.13;;;26.33;30.81
13478;BME280;12598;62.382;17.344;2023-09-07T03:48:50;102344.13;;;26.32;30.95
13478;BME280;12598;62.382;17.344;2023-09-07T03:49:52;102344.13;;;26.32;31.02
13478;BME280;12598;62.382;17.344;2023-09-07T03:50:53;102339.22;;;26.28;30.80
13478;BME280;12598;62.382;17.344;2023-09-07T03:51:55;102341.59;;;26.31;30.83
13478;BME280;12598;62.382;17.344;2023-09-07T03:52:58;102344.13;;;26.32;30.60
13478;BME280;12598;62.382;17.344;2023-09-07T03:54:00;102339.38;;;26.26;30.43
13478;BME280;12598;62.382;17.344;2023-09-07T03:55:02;102347.88;;;26.31;30.61
13478;BME280;12598;62.382;17.344;2023-09-07T03:56:04;102347.88;;;26.31;31.36
13478;BME280;12598;62.382;17.344;2023-09-07T03:57:06;102348.72;;;26.32;31.44
13478;BME280;12598;62.382;17.344;2023-09-07T03:58:09;102347.88;;;26.31;31.17
13478;BME280;12598;62.382;17.344;2023-09-07T03:59:12;102348.88;;;26.30;30.84
13478;BME280;12598;62.382;17.344;2023-09-07T04:00:15;102351.59;;;26.30;30.86
13478;BME280;12598;62.382;17.344;2023-09-07T04:01:20;102350.44;;;26.33;31.30
13478;BME280;12598;62.382;17.344;2023-09-07T04:02:23;102358.72;;;26.31;31.14
13478;BME280;12598;62.382;17.344;2023-09-07T04:03:25;102354.16;;;26.32;31.26
13478;BME280;12598;62.382;17.344;2023-09-07T04:04:27;102354.31;;;26.30;31.25
13478;BME280;12598;62.382;17.344;2023-09-07T04:05:29;102352.44;;;26.31;31.07
13478;BME280;12598;62.382;17.344;2023-09-07T04:06:31;102352.59;;;26.29;31.16
13478;BME280;12598;62.382;17.344;2023-09-07T04:07:33;102342.44;;;26.31;30.67
13478;BME280;12598;62.382;17.344;2023-09-07T04:08:35;102333.25;;;26.24;30.67
13478;BME280;12598;62.382;17.344;2023-09-07T04:09:37;102347.88;;;26.31;30.90
13478;BME280;12598;62.382;17.344;2023-09-07T04:10:39;102345.84;;;26.33;31.08
13478;BME280;12598;62.382;17.344;2023-09-07T04:11:41;102341.06;;;26.27;31.29
13478;BME280;12598;62.382;17.344;2023-09-07T04:12:42;102347.88;;;26.31;30.67
13478;BME280;12598;62.382;17.344;2023-09-07T04:13:44;102346.69;;;26.34;30.64
13478;BME280;12598;62.382;17.344;2023-09-07T04:14:46;102346.84;;;26.32;30.85
13478;BME280;12598;62.382;17.344;2023-09-07T04:15:48;102341.59;;;26.31;31.21
13478;BME280;12598;62.382;17.344;2023-09-07T04:16:50;102342.44;;;26.31;31.06
13478;BME280;12598;62.382;17.344;2023-09-07T04:17:52;102332.78;;;26.29;31.38
13478;BME280;12598;62.382;17.344;2023-09-07T04:18:56;102332.78;;;26.29;31.17
13478;BME280;12598;62.382;17.344;2023-09-07T04:19:58;102333.25;;;26.24;31.01
13478;BME280;12598;62.382;17.344;2023-09-07T04:21:07;102331.78;;;26.30;30.85
13478;BME280;12598;62.382;17.344;2023-09-07T04:22:11;102339.03;;;26.29;30.56
13478;BME280;12598;62.382;17.344;2023-09-07T04:23:13;102337.34;;;26.28;30.39
13478;BME280;12598;62.382;17.344;2023-09-07T04:24:15;102341.59;;;26.31;30.85
13478;BME280;12598;62.382;17.344;2023-09-07T04:25:17;102334.47;;;26.30;31.28
13478;BME280;12598;62.382;17.344;2023-09-07T04:26:18;102341.75;;;26.29;31.08
13478;BME280;12598;62.382;17.344;2023-09-07T04:27:20;102331.91;;;26.28;30.94
13478;BME280;12598;62.382;17.344;2023-09-07T04:28:22;102336.50;;;26.28;30.77
13478;BME280;12598;62.382;17.344;2023-09-07T04:29:24;102335.66;;;26.27;31.01
13478;BME280;12598;62.382;17.344;2023-09-07T04:30:26;102332.25;;;26.25;30.88
13478;BME280;12598;62.382;17.344;2023-09-07T04:31:29;102320.88;;;26.22;30.93
13478;BME280;12598;62.382;17.344;2023-09-07T04:32:32;102325.81;;;26.26;30.99
13478;BME280;12598;62.382;17.344;2023-09-07T04:33:34;102333.94;;;26.26;31.18
13478;BME280;12598;62.382;17.344;2023-09-07T04:34:36;102333.09;;;26.26;30.93
13478;BME280;12598;62.382;17.344;2023-09-07T04:35:38;102316.63;;;26.19;31.02
13478;BME280;12598;62.382;17.344;2023-09-07T04:36:41;102323.28;;;26.25;30.42
13478;BME280;12598;62.382;17.344;2023-09-07T04:37:42;102323.09;;;26.26;30.43
13478;BME280;12598;62.382;17.344;2023-09-07T04:38:45;102329.38;;;26.27;31.31
13478;BME280;12598;62.382;17.344;2023-09-07T04:39:50;102333.09;;;26.26;31.10
13478;BME280;12598;62.382;17.344;2023-09-07T04:40:52;102331.41;;;26.25;31.51
13478;BME280;12598;62.382;17.344;2023-09-07T04:41:54;102324.28;;;26.24;30.94
13478;BME280;12598;62.382;17.344;2023-09-07T04:42:56;102328.84;;;26.23;30.87
13478;BME280;12598;62.382;17.344;2023-09-07T04:43:58;102327.50;;;26.27;30.94
13478;BME280;12598;62.382;17.344;2023-09-07T04:45:00;102330.22;;;26.27;30.90
13478;BME280;12598;62.382;17.344;2023-09-07T04:46:02;102329.38;;;26.27;31.35
13478;BME280;12598;62.382;17.344;2023-09-07T04:47:04;102332.94;;;26.27;30.97
13478;BME280;12598;62.382;17.344;2023-09-07T04:48:06;102340.22;;;26.27;31.25
13478;BME280;12598;62.382;17.344;2023-09-07T04:49:08;102342.75;;;26.28;31.24
13478;BME280;12598;62.382;17.344;2023-09-07T04:50:10;102341.06;;;26.27;31.19
13478;BME280;12598;62.382;17.344;2023-09-07T04:51:12;102337.66;;;26.25;30.79
13478;BME280;12598;62.382;17.344;2023-09-07T04:52:14;102341.06;;;26.27;30.26
13478;BME280;12598;62.382;17.344;2023-09-07T04:53:17;102331.75;;;26.22;30.67
13478;BME280;12598;62.382;17.344;2023-09-07T04:54:19;102337.53;;;26.27;30.91
13478;BME280;12598;62.382;17.344;2023-09-07T04:55:21;102340.06;;;26.28;30.91
13478;BME280;12598;62.382;17.344;2023-09-07T04:56:22;102347.03;;;26.31;31.16
13478;BME280;12598;62.382;17.344;2023-09-07T04:57:25;102338.88;;;26.31;31.22
13478;BME280;12598;62.382;17.344;2023-09-07T04:58:27;102342.44;;;26.31;30.75
13478;BME280;12598;62.382;17.344;2023-09-07T04:59:29;102337.34;;;26.28;30.78
13478;BME280;12598;62.382;17.344;2023-09-07T05:00:31;102334.28;;;26.23;30.47
13478;BME280;12598;62.382;17.344;2023-09-07T05:01:33;102349.88;;;26.29;30.77
13478;BME280;12598;62.382;17.344;2023-09-07T05:02:35;102339.91;;;26.30;30.91
13478;BME280;12598;62.382;17.344;2023-09-07T05:03:42;102341.75;;;26.29;30.69
13478;BME280;12598;62.382;17.344;2023-09-07T05:04:44;102335.66;;;26.27;31.01
13478;BME280;12598;62.382;17.344;2023-09-07T05:05:52;102339.22;;;26.28;30.86
13478;BME280;12598;62.382;17.344;2023-09-07T05:06:56;102353.28;;;26.31;30.66
13478;BME280;12598;62.382;17.344;2023-09-07T05:07:58;102350.56;;;26.31;30.28
13478;BME280;12598;62.382;17.344;2023-09-07T05:09:00;102330.19;;;26.19;30.72
13478;BME280;12598;62.382;17.344;2023-09-07T05:10:02;102342.75;;;26.28;30.81
13478;BME280;12598;62.382;17.344;2023-09-07T05:11:05;102342.09;;;26.34;31.43
13478;BME280;12598;62.382;17.344;2023-09-07T05:12:07;102337.38;;;26.36;30.88
13478;BME280;12598;62.382;17.344;2023-09-07T05:13:10;102332.97;;;26.35;30.99
13478;BME280;12598;62.382;17.344;2023-09-07T05:14:13;102344.19;;;26.40;30.95
13478;BME280;12598;62.382;17.344;2023-09-07T05:15:15;102348.28;;;26.44;30.75
13478;BME280;12598;62.382;17.344;2023-09-07T05:16:17;102346.28;;;26.46;30.87
13478;BME280;12598;62.382;17.344;2023-09-07T05:17:19;102345.09;;;26.49;30.81
13478;BME280;12598;62.382;17.344;2023-09-07T05:18:21;102342.03;;;26.52;30.57
13478;BME280;12598;62.382;17.344;2023-09-07T05:19:24;102327.09;;;26.48;30.80
13478;BME280;12598;62.382;17.344;2023-09-07T05:20:25;102341.22;;;26.59;30.35
13478;BME280;12598;62.382;17.344;2023-09-07T05:21:27;102336.34;;;26.63;30.38
13478;BME280;12598;62.382;17.344;2023-09-07T05:22:29;102337.69;;;26.67;30.09
13478;BME280;12598;62.382;17.344;2023-09-07T05:23:31;102335.47;;;26.70;29.98
13478;BME280;12598;62.382;17.344;2023-09-07T05:24:33;102333.09;;;26.75;30.47